SDM6817 UNKL-USMU
Flight info
| Callsign | SDM6817 |
|---|---|
| Flight time | N/A |
| Altitude | 34000 |
| Route | N0460F340 BASEL B938 SURIP B247 ABREN R809 TARSA W128 LUNOD |
| Aircraft | A319/M-VGDW/C |
Departure
| Time | 2026-04-27 19:55 |
|---|---|
| Airport | Krasnoyarsk International Airport (UNKL) |
Arrival
| Time | N/A |
|---|---|
| Airport | Novy Urengoy Airport (USMU) |
| Time | Latitude | Longitude | Altitude | Speed | Heading |
|---|---|---|---|---|---|
| 2026-04-27 19:29 | 56.17941 | 92.48532 | 951 ft | 0 kts | 22° |
| 2026-04-27 19:44 | 56.17924 | 92.48520 | 950 ft | 4 kts | 22° |
| 2026-04-27 19:45 | 56.17904 | 92.48505 | 950 ft | 4 kts | 31° |
| 2026-04-27 19:45 | 56.17885 | 92.48474 | 951 ft | 4 kts | 69° |
| 2026-04-27 19:45 | 56.17882 | 92.48428 | 950 ft | 4 kts | 103° |
| 2026-04-27 19:45 | 56.17888 | 92.48393 | 950 ft | 0 kts | 112° |
| 2026-04-27 19:48 | 56.17887 | 92.48401 | 950 ft | 1 kts | 112° |
| 2026-04-27 19:48 | 56.17876 | 92.48431 | 951 ft | 8 kts | 134° |
| 2026-04-27 19:48 | 56.17803 | 92.48429 | 951 ft | 12 kts | 199° |
| 2026-04-27 19:49 | 56.17729 | 92.48446 | 951 ft | 12 kts | 127° |
| 2026-04-27 19:49 | 56.17692 | 92.48591 | 951 ft | 13 kts | 113° |
| 2026-04-27 19:49 | 56.17654 | 92.48751 | 950 ft | 15 kts | 113° |
| 2026-04-27 19:49 | 56.17613 | 92.48925 | 951 ft | 16 kts | 113° |
| 2026-04-27 19:50 | 56.17569 | 92.49111 | 950 ft | 17 kts | 113° |
| 2026-04-27 19:50 | 56.17523 | 92.49308 | 951 ft | 18 kts | 112° |
| 2026-04-27 19:50 | 56.17474 | 92.49515 | 951 ft | 18 kts | 112° |
| 2026-04-27 19:50 | 56.17424 | 92.49732 | 951 ft | 19 kts | 112° |
| 2026-04-27 19:51 | 56.17370 | 92.49956 | 950 ft | 20 kts | 113° |
| 2026-04-27 19:51 | 56.17314 | 92.50188 | 951 ft | 21 kts | 113° |
| 2026-04-27 19:51 | 56.17310 | 92.50206 | 949 ft | 21 kts | 113° |
| 2026-04-27 19:51 | 56.17267 | 92.50385 | 949 ft | 21 kts | 113° |
| 2026-04-27 19:52 | 56.17208 | 92.50632 | 951 ft | 22 kts | 113° |
| 2026-04-27 19:52 | 56.17147 | 92.50884 | 951 ft | 22 kts | 113° |
| 2026-04-27 19:52 | 56.17084 | 92.51142 | 951 ft | 23 kts | 113° |
| 2026-04-27 19:52 | 56.17020 | 92.51407 | 950 ft | 23 kts | 114° |
| 2026-04-27 19:53 | 56.16896 | 92.51914 | 949 ft | 13 kts | 127° |
| 2026-04-27 19:53 | 56.16813 | 92.51990 | 951 ft | 14 kts | 159° |
| 2026-04-27 19:53 | 56.16720 | 92.52050 | 952 ft | 15 kts | 167° |
| 2026-04-27 19:54 | 56.16668 | 92.51944 | 952 ft | 14 kts | 281° |
| 2026-04-27 19:54 | 56.16731 | 92.51689 | 952 ft | 51 kts | 294° |
| 2026-04-27 19:54 | 56.16975 | 92.50658 | 953 ft | 124 kts | 293° |
| 2026-04-27 19:54 | 56.17395 | 92.48904 | 951 ft | 179 kts | 293° |
| 2026-04-27 19:55 | 56.17919 | 92.46703 | 1345 ft | 197 kts | 293° |
| 2026-04-27 19:55 | 56.18475 | 92.44365 | 1979 ft | 213 kts | 293° |
| 2026-04-27 19:55 | 56.19081 | 92.41804 | 2607 ft | 234 kts | 294° |
| 2026-04-27 19:55 | 56.19747 | 92.39002 | 3271 ft | 253 kts | 294° |
| 2026-04-27 19:56 | 56.20435 | 92.36121 | 4475 ft | 247 kts | 294° |
| 2026-04-27 19:56 | 56.21120 | 92.33251 | 5561 ft | 248 kts | 294° |
| 2026-04-27 19:56 | 56.21905 | 92.30592 | 6922 ft | 232 kts | 308° |
| 2026-04-27 19:56 | 56.23212 | 92.28736 | 7612 ft | 255 kts | 331° |
| 2026-04-27 19:57 | 56.24859 | 92.27325 | 8342 ft | 267 kts | 332° |
| 2026-04-27 19:57 | 56.26540 | 92.25839 | 9245 ft | 272 kts | 329° |
| 2026-04-27 19:57 | 56.28226 | 92.24235 | 10156 ft | 276 kts | 327° |
| 2026-04-27 19:57 | 56.29951 | 92.22479 | 10626 ft | 296 kts | 326° |
| 2026-04-27 19:58 | 56.31781 | 92.20521 | 11053 ft | 314 kts | 325° |
| 2026-04-27 19:58 | 56.33668 | 92.18447 | 11792 ft | 321 kts | 324° |
| 2026-04-27 19:58 | 56.35583 | 92.16317 | 12589 ft | 326 kts | 323° |
| 2026-04-27 19:58 | 56.37528 | 92.14139 | 13393 ft | 331 kts | 322° |
| 2026-04-27 19:59 | 56.39498 | 92.11920 | 14150 ft | 337 kts | 322° |
| 2026-04-27 19:59 | 56.41499 | 92.09665 | 14853 ft | 340 kts | 321° |
| 2026-04-27 19:59 | 56.43520 | 92.07389 | 15551 ft | 344 kts | 321° |
| 2026-04-27 19:59 | 56.45564 | 92.05093 | 16233 ft | 348 kts | 321° |
| 2026-04-27 20:00 | 56.47629 | 92.02774 | 16938 ft | 352 kts | 320° |
| 2026-04-27 20:00 | 56.49691 | 92.00456 | 17640 ft | 355 kts | 320° |
| 2026-04-27 20:00 | 56.51801 | 91.98078 | 18342 ft | 359 kts | 320° |
| 2026-04-27 20:00 | 56.53929 | 91.95673 | 18963 ft | 363 kts | 319° |
| 2026-04-27 20:01 | 56.56079 | 91.93238 | 19558 ft | 366 kts | 319° |
| 2026-04-27 20:01 | 56.58253 | 91.90776 | 20148 ft | 370 kts | 318° |
| 2026-04-27 20:01 | 56.60449 | 91.88285 | 20731 ft | 374 kts | 318° |
| 2026-04-27 20:01 | 56.62667 | 91.85763 | 21317 ft | 378 kts | 317° |
| 2026-04-27 20:02 | 56.64912 | 91.83208 | 21890 ft | 383 kts | 317° |
| 2026-04-27 20:02 | 56.67180 | 91.80624 | 22462 ft | 387 kts | 317° |
| 2026-04-27 20:02 | 56.69476 | 91.78007 | 23031 ft | 391 kts | 317° |
| 2026-04-27 20:02 | 56.71791 | 91.75361 | 23594 ft | 395 kts | 316° |
| 2026-04-27 20:03 | 56.74133 | 91.72682 | 24075 ft | 399 kts | 316° |
| 2026-04-27 20:03 | 56.76459 | 91.69907 | 24535 ft | 399 kts | 314° |
| 2026-04-27 20:03 | 56.78714 | 91.66951 | 25005 ft | 399 kts | 311° |
| 2026-04-27 20:03 | 56.80925 | 91.63873 | 25466 ft | 401 kts | 310° |
| 2026-04-27 20:04 | 56.83125 | 91.60725 | 25925 ft | 403 kts | 310° |
| 2026-04-27 20:04 | 56.85341 | 91.57543 | 26373 ft | 406 kts | 310° |
| 2026-04-27 20:04 | 56.87578 | 91.54353 | 26822 ft | 409 kts | 310° |
| 2026-04-27 20:04 | 56.89843 | 91.51157 | 27264 ft | 413 kts | 310° |
| 2026-04-27 20:05 | 56.92138 | 91.47955 | 27701 ft | 416 kts | 310° |
| 2026-04-27 20:05 | 56.94500 | 91.44825 | 28125 ft | 427 kts | 316° |
| 2026-04-27 20:05 | 56.97189 | 91.42258 | 28544 ft | 445 kts | 326° |
| 2026-04-27 20:05 | 57.00197 | 91.40488 | 28956 ft | 464 kts | 336° |
| 2026-04-27 20:06 | 57.03409 | 91.39398 | 29356 ft | 472 kts | 339° |
| 2026-04-27 20:06 | 57.06648 | 91.38331 | 29742 ft | 475 kts | 339° |
| 2026-04-27 20:06 | 57.09910 | 91.37240 | 30132 ft | 478 kts | 339° |
| 2026-04-27 20:06 | 57.13194 | 91.36134 | 30465 ft | 481 kts | 339° |
| 2026-04-27 20:07 | 57.16489 | 91.35023 | 30811 ft | 483 kts | 339° |
| 2026-04-27 20:07 | 57.19795 | 91.33904 | 31159 ft | 484 kts | 339° |
| 2026-04-27 20:07 | 57.23114 | 91.32778 | 31512 ft | 485 kts | 340° |
| 2026-04-27 20:07 | 57.26442 | 91.31651 | 31870 ft | 486 kts | 340° |
| 2026-04-27 20:08 | 57.29760 | 91.30530 | 32355 ft | 484 kts | 340° |
| 2026-04-27 20:08 | 57.33059 | 91.29422 | 32874 ft | 481 kts | 341° |
| 2026-04-27 20:08 | 57.36343 | 91.28320 | 33388 ft | 477 kts | 341° |
| 2026-04-27 20:08 | 57.39601 | 91.27221 | 33910 ft | 474 kts | 341° |
| 2026-04-27 20:09 | 57.42840 | 91.26124 | 34146 ft | 473 kts | 341° |
| 2026-04-27 20:09 | 57.46043 | 91.25041 | 34192 ft | 461 kts | 341° |
| 2026-04-27 20:09 | 57.52272 | 91.22914 | 34178 ft | 452 kts | 341° |
| 2026-04-27 20:10 | 57.58447 | 91.20756 | 34180 ft | 451 kts | 341° |
| 2026-04-27 20:10 | 57.64615 | 91.18598 | 34183 ft | 451 kts | 341° |
| 2026-04-27 20:11 | 57.70784 | 91.16464 | 34180 ft | 451 kts | 341° |
| 2026-04-27 20:11 | 57.76946 | 91.14325 | 34190 ft | 450 kts | 341° |
| 2026-04-27 20:12 | 57.82110 | 91.12535 | 34189 ft | 450 kts | 341° |
| 2026-04-27 20:12 | 57.89266 | 91.10047 | 34191 ft | 450 kts | 341° |
| 2026-04-27 20:13 | 57.95419 | 91.07887 | 34196 ft | 450 kts | 341° |
| 2026-04-27 20:13 | 58.01568 | 91.05706 | 34198 ft | 450 kts | 341° |
| 2026-04-27 20:14 | 58.07713 | 91.03520 | 34193 ft | 450 kts | 341° |
| 2026-04-27 20:14 | 58.13866 | 91.01351 | 34196 ft | 449 kts | 342° |
| 2026-04-27 20:15 | 58.20009 | 90.99159 | 34196 ft | 449 kts | 341° |
| 2026-04-27 20:15 | 58.26154 | 90.96973 | 34196 ft | 449 kts | 342° |
| 2026-04-27 20:16 | 58.30267 | 90.95507 | 34190 ft | 449 kts | 342° |